Time;durP1;ratioP1;P1;durP2;ratioP2;P2;SDS_P1;SDS_P2;PMS_P1;PMS_P2;Temp;Humidity;BMP_temperature;BMP_pressure;BME280_temperature;BME280_humidity;BME280_pressure;Samples;Min_cycle;Max_cycle;Signal;HPM_P1;HPM_P2
2022/04/23 00:00:50;;;;;;;14.65;11.70;;;14.00;99.90;;;14.31;64.82;100416.56;5073714;28;20506;-68
2022/04/23 00:03:18;;;;;;;13.95;11.85;;;14.00;99.90;;;14.59;64.21;100425.56;5073836;28;20040;-68
2022/04/23 00:05:47;;;;;;;13.82;11.43;;;14.20;99.90;;;14.72;63.59;100420.75;5073453;28;20044;-68
2022/04/23 00:08:16;;;;;;;15.05;11.50;;;14.30;99.90;;;14.91;63.19;100428.19;5073451;28;20549;-67
2022/04/23 00:10:45;;;;;;;14.15;11.60;;;14.50;99.90;;;14.95;62.73;100423.63;5073453;28;20076;-68
2022/04/23 00:13:14;;;;;;;13.27;10.45;;;14.60;99.90;;;14.97;62.47;100414.69;5073997;28;20052;-69
2022/04/23 00:15:43;;;;;;;13.98;10.70;;;14.70;99.90;;;15.00;62.42;100419.06;5073903;28;20072;-68
2022/04/23 00:18:12;;;;;;;11.63;10.48;;;14.70;99.90;;;14.86;62.28;100386.63;5073335;28;20071;-67
2022/04/23 00:20:41;;;;;;;11.50;10.30;;;14.70;99.90;;;15.08;61.77;100417.88;5073169;28;20371;-67
2022/04/23 00:23:10;;;;;;;13.98;10.57;;;14.80;99.90;;;15.14;61.60;100412.38;5073327;28;20044;-68
2022/04/23 00:25:39;;;;;;;13.38;10.48;;;14.80;99.90;;;15.13;61.83;100417.75;5073751;28;20533;-68
2022/04/23 00:28:10;;;;;;;11.60;10.40;;;14.80;99.90;;;15.00;61.61;100411.91;5073423;28;20076;-68
2022/04/23 00:30:39;;;;;;;12.40;9.93;;;14.70;99.90;;;14.99;61.86;100410.19;5073230;28;20044;-67
2022/04/23 00:33:08;;;;;;;15.68;10.40;;;14.70;99.90;;;15.04;61.51;100415.38;5073404;28;20371;-68
2022/04/23 00:35:38;;;;;;;16.40;10.57;;;14.70;99.90;;;14.78;62.33;100409.94;5073083;28;20498;-68
2022/04/23 00:38:08;;;;;;;11.25;10.07;;;14.50;99.90;;;14.81;62.31;100409.84;5072480;28;20041;-68
2022/04/23 00:40:38;;;;;;;13.13;10.90;;;14.50;99.90;;;14.73;62.33;100395.91;5073012;28;20052;-68
2022/04/23 00:43:10;;;;;;;13.32;10.38;;;14.50;99.90;;;14.72;62.65;100405.66;5073115;28;20098;-68
2022/04/23 00:45:40;;;;;;;14.27;10.27;;;14.40;99.90;;;14.74;62.85;100401.16;5073599;28;20090;-67
2022/04/23 00:48:09;;;;;;;;;;;14.40;99.90;;;14.74;62.84;100398.50;5073210;28;20056;-67
2022/04/23 00:50:39;;;;;;;11.93;10.30;;;14.50;99.90;;;14.75;62.60;100404.72;5073516;28;19920;-68
2022/04/23 00:53:10;;;;;;;13.83;10.80;;;14.50;99.90;;;14.67;63.17;100407.59;5073269;28;20098;-69
2022/04/23 00:55:41;;;;;;;11.68;10.48;;;14.40;99.90;;;14.55;63.27;100405.28;5072983;28;20072;-68
2022/04/23 00:58:10;;;;;;;14.77;11.40;;;14.30;99.90;;;14.65;63.36;100397.91;5072958;28;20055;-67
2022/04/23 01:00:40;;;;;;;14.95;10.57;;;14.30;99.90;;;14.68;63.45;100404.00;5055065;28;20395;-68
2022/04/23 01:03:10;;;;;;;;;;;14.40;99.90;;;14.66;63.35;100389.88;5073293;28;20045;-68
2022/04/23 01:05:44;;;;;;;12.85;11.52;;;14.40;99.90;;;14.39;63.24;100337.41;5073416;28;19921;-67
2022/04/23 01:08:15;;;;;;;15.90;11.38;;;14.40;99.90;;;14.62;63.48;100414.81;5073005;28;20075;-68
2022/04/23 01:10:49;;;;;;;14.25;11.38;;;14.30;99.90;;;14.58;63.82;100399.84;5072972;28;20173;-68
2022/04/23 01:13:18;;;;;;;15.60;11.95;;;14.30;99.90;;;14.60;63.84;100398.03;5072748;28;20136;-67
2022/04/23 01:15:59;;;;;;;13.55;11.18;;;14.20;99.90;;;14.52;63.92;100397.34;5072944;28;20094;-68
2022/04/23 01:18:27;;;;;;;12.93;11.23;;;14.20;99.90;;;14.57;63.67;100398.13;5073074;28;20045;-68
2022/04/23 01:20:59;;;;;;;15.27;11.07;;;14.20;99.90;;;14.63;64.04;100395.28;5072584;28;20127;-67
2022/04/23 01:23:27;;;;;;;12.68;10.98;;;14.30;99.90;;;14.60;63.83;100403.34;5072665;28;20498;-67
2022/04/23 01:25:56;;;;;;;12.35;10.43;;;14.20;99.90;;;14.42;64.16;100363.94;5073158;28;20128;-67
2022/04/23 01:28:27;;;;;;;17.40;12.43;;;14.30;99.90;;;14.62;63.94;100400.63;5071564;28;20048;-67
2022/04/23 01:30:57;;;;;;;13.85;12.05;;;14.30;99.90;;;14.63;64.19;100408.59;5072566;28;20563;-68
2022/04/23 01:33:27;;;;;;;16.95;11.60;;;14.30;99.90;;;14.53;64.18;100392.91;5072863;28;20080;-67
2022/04/23 01:35:56;;;;;;;13.45;11.43;;;14.20;99.90;;;14.51;64.31;100394.75;5072805;28;20044;-67
2022/04/23 01:38:25;;;;;;;14.35;12.15;;;14.20;99.90;;;14.46;64.62;100389.53;5072791;28;20102;-67
2022/04/23 01:40:53;;;;;;;15.38;11.38;;;14.20;99.90;;;14.46;64.57;100401.06;5072387;28;20124;-67
2022/04/23 01:43:21;;;;;;;13.93;11.88;;;14.20;99.90;;;14.33;64.91;100401.44;5072757;28;20080;-67
2022/04/23 01:45:50;;;;;;;14.35;12.15;;;14.00;99.90;;;14.25;65.32;100398.97;5072675;28;20074;-67
2022/04/23 01:48:18;;;;;;;15.82;12.00;;;14.00;99.90;;;14.31;65.61;100403.28;5073343;28;20055;-68
2022/04/23 01:50:50;;;;;;;15.23;12.65;;;13.90;99.90;;;14.33;65.49;100393.47;5075118;28;20497;-68
2022/04/23 01:53:21;;;;;;;17.83;13.45;;;14.00;99.90;;;14.32;65.68;100399.72;5076654;28;20494;-67
2022/04/23 01:55:51;;;;;;;15.25;12.25;;;14.00;99.90;;;14.27;65.85;100397.16;5076328;28;20474;-68
2022/04/23 01:58:19;;;;;;;14.98;13.13;;;14.00;99.90;;;14.30;65.81;100391.75;5076618;28;20056;-68
2022/04/23 02:00:51;;;;;;;16.70;13.18;;;13.90;99.90;;;13.89;66.47;100388.41;5075834;28;20482;-67
2022/04/23 02:03:19;;;;;;;17.40;14.00;;;13.80;99.90;;;14.14;66.66;100395.72;5075493;28;20115;-68
2022/04/23 02:05:48;;;;;;;14.35;12.82;;;13.80;99.90;;;14.04;66.44;100366.75;5076395;28;20044;-67
2022/04/23 02:08:21;;;;;;;15.52;13.93;;;13.90;99.90;;;14.18;66.29;100397.38;5076071;28;20500;-69
2022/04/23 02:10:49;;;;;;;15.00;13.40;;;13.80;99.90;;;14.25;66.65;100392.75;5076059;28;20068;-67
2022/04/23 02:13:18;;;;;;;17.27;13.73;;;13.90;99.90;;;14.28;66.62;100392.72;5075668;28;20875;-67
2022/04/23 02:15:46;;;;;;;19.88;13.40;;;13.90;99.90;;;14.21;66.47;100393.75;5075626;28;20102;-67
2022/04/23 02:18:18;;;;;;;17.38;13.70;;;13.90;99.90;;;14.02;66.54;100344.63;5075602;28;20048;-67
2022/04/23 02:20:46;;;;;;;15.27;13.57;;;13.90;99.90;;;14.24;66.47;100391.91;5076183;28;20072;-68
2022/04/23 02:23:18;;;;;;;18.90;13.68;;;13.90;99.90;;;14.14;66.81;100387.75;5075414;28;20033;-68
2022/04/23 02:25:48;;;;;;;15.77;13.90;;;13.80;99.90;;;14.18;66.90;100384.09;5075517;28;20044;-67
2022/04/23 02:28:16;;;;;;;18.23;14.50;;;13.80;99.90;;;14.13;66.70;100393.13;5075678;28;20106;-70
2022/04/23 02:30:45;;;;;;;15.63;13.95;;;13.80;99.90;;;14.01;67.27;100393.44;5075271;28;20094;-67
2022/04/23 02:33:14;;;;;;;17.10;15.07;;;13.70;99.90;;;13.94;67.45;100397.13;5075617;28;20490;-67
2022/04/23 02:35:45;;;;;;;19.05;15.30;;;13.70;99.90;;;13.87;67.67;100393.78;5075321;28;20553;-68
2022/04/23 02:38:17;;;;;;;17.30;15.48;;;13.60;99.90;;;13.89;68.21;100396.41;5075329;28;20044;-67
2022/04/23 02:40:46;;;;;;;20.42;15.70;;;13.60;99.90;;;13.93;67.91;100400.72;5075276;28;20040;-67
2022/04/23 02:43:15;;;;;;;18.33;15.77;;;13.60;99.90;;;13.84;68.15;100393.00;5057488;28;20078;-68
2022/04/23 02:45:44;;;;;;;20.33;17.50;;;13.60;99.90;;;13.54;69.38;100403.47;5075100;28;20070;-67
2022/04/23 02:48:13;;;;;;;18.65;16.65;;;13.40;99.90;;;13.64;69.42;100390.81;5075278;28;20454;-68
2022/04/23 02:50:41;;;;;;;19.85;16.90;;;13.30;99.90;;;13.49;69.77;100394.72;5075606;28;20048;-68
2022/04/23 02:53:10;;;;;;;24.75;17.08;;;13.30;99.90;;;13.57;69.75;100398.06;5075242;28;20044;-68
2022/04/23 02:55:41;;;;;;;22.42;18.15;;;13.30;99.90;;;13.14;70.26;100381.38;5074907;28;20064;-70
2022/04/23 02:58:12;;;;;;;21.15;17.80;;;13.20;99.90;;;12.96;71.98;100407.44;5074947;28;20555;-68
2022/04/23 03:00:42;;;;;;;24.42;19.13;;;12.80;99.90;;;12.92;72.17;100400.44;5074584;28;20044;-68
2022/04/23 03:03:12;;;;;;;27.77;19.65;;;12.70;99.90;;;13.04;72.45;100389.59;5074978;28;20048;-67
2022/04/23 03:05:44;;;;;;;;;;;12.80;99.90;;;13.07;72.34;100394.81;5075418;28;20147;-68
2022/04/23 03:08:13;;;;;;;;;;;12.80;99.90;;;12.76;73.43;100404.31;5075163;28;19920;-67
2022/04/23 03:10:43;;;;;;;25.35;21.33;;;12.60;99.90;;;12.83;73.96;100390.91;5074613;28;19920;-68
2022/04/23 03:13:14;;;;;;;;;;;12.50;99.90;;;13.00;73.51;100394.06;5075314;28;20051;-68
2022/04/23 03:15:44;;;;;;;;;;;12.70;99.90;;;12.91;73.48;100399.56;5075083;28;19969;-68
2022/04/23 03:18:15;;;;;;;29.02;23.50;;;12.70;99.90;;;12.97;73.72;100398.56;5074563;28;19952;-67
2022/04/23 03:20:44;;;;;;;28.85;22.77;;;12.60;99.90;;;12.87;73.77;100370.47;5074789;28;20037;-67
2022/04/23 03:23:14;;;;;;;30.75;23.00;;;12.70;99.90;;;12.86;73.40;100345.72;5074311;28;20406;-67
2022/04/23 03:25:45;;;;;;;29.48;22.10;;;12.80;99.90;;;13.10;73.43;100385.03;5074365;28;20102;-68
2022/04/23 03:28:16;;;;;;;32.08;23.15;;;12.80;99.90;;;13.03;73.62;100374.50;5074624;28;20048;-68
2022/04/23 03:30:45;;;;;;;33.58;23.55;;;12.80;99.90;;;13.00;73.62;100378.13;5074257;28;20044;-68
2022/04/23 03:33:14;;;;;;;26.50;22.63;;;12.80;99.90;;;12.82;74.61;100373.22;5074155;28;20044;-68
2022/04/23 03:35:42;;;;;;;27.95;23.75;;;12.60;99.90;;;12.91;74.32;100382.78;5074116;28;20162;-68
2022/04/23 03:38:11;;;;;;;27.05;22.98;;;12.70;99.90;;;13.00;74.15;100372.81;5056387;28;20049;-67
2022/04/23 03:40:39;;;;;;;29.08;24.83;;;12.70;99.90;;;12.89;74.63;100373.97;5073985;28;20047;-68
2022/04/23 03:43:07;;;;;;;26.88;23.95;;;12.60;99.90;;;12.49;75.23;100350.03;5074205;28;20104;-68
2022/04/23 03:45:37;;;;;;;29.58;24.40;;;12.50;99.90;;;12.85;75.09;100378.47;5073877;28;20044;-67
2022/04/23 03:48:06;;;;;;;30.92;25.00;;;12.50;99.90;;;12.69;75.65;100385.88;5056024;28;20083;-67
2022/04/23 03:50:37;;;;;;;32.03;26.00;;;12.50;99.90;;;12.58;75.68;100363.97;5073900;28;20128;-68
2022/04/23 03:53:06;;;;;;;30.63;24.65;;;12.40;99.90;;;12.86;75.64;100369.59;5073792;28;20045;-67
2022/04/23 03:55:34;;;;;;;29.83;24.63;;;12.50;99.90;;;12.87;75.18;100368.69;5073994;28;20131;-68
2022/04/23 03:58:03;;;;;;;26.98;23.90;;;12.60;99.90;;;13.00;74.98;100358.66;5073683;28;20072;-67
2022/04/23 04:00:31;;;;;;;29.77;24.85;;;12.70;99.90;;;13.02;74.75;100364.81;5073860;28;20037;-67
2022/04/23 04:03:02;;;;;;;29.38;24.85;;;12.70;99.90;;;13.12;74.31;100366.41;5055859;28;20485;-67
2022/04/23 04:05:31;;;;;;;30.35;25.92;;;12.80;99.90;;;13.13;74.65;100360.16;5073852;28;20422;-67
2022/04/23 04:07:59;;;;;;;29.67;25.23;;;12.80;99.90;;;13.14;74.26;100359.28;5073491;28;20090;-68
2022/04/23 04:10:28;;;;;;;31.52;25.10;;;12.80;99.90;;;13.18;73.99;100359.16;5073463;28;20036;-67
2022/04/23 04:12:56;;;;;;;30.17;25.67;;;12.90;99.90;;;13.21;74.10;100361.75;5072555;28;20079;-67
2022/04/23 04:15:24;;;;;;;30.85;25.05;;;12.90;99.90;;;13.29;73.89;100359.78;5073613;28;20068;-67
2022/04/23 04:17:54;;;;;;;28.23;25.00;;;13.00;99.90;;;13.35;73.76;100351.69;5073440;28;20098;-67
2022/04/23 04:20:24;;;;;;;29.40;24.50;;;13.00;99.90;;;13.30;73.97;100361.53;5073305;28;20497;-67
2022/04/23 04:22:53;;;;;;;27.83;24.77;;;13.00;99.90;;;13.37;73.68;100349.88;5073519;28;20118;-68
2022/04/23 04:25:21;;;;;;;31.77;25.30;;;13.10;99.90;;;13.38;73.53;100358.69;5073231;28;20094;-68
2022/04/23 04:27:50;;;;;;;30.13;25.02;;;13.10;99.90;;;13.21;73.58;100319.25;5073209;28;20121;-68
2022/04/23 04:30:18;;;;;;;27.92;24.88;;;13.10;99.90;;;13.38;73.41;100342.75;5073161;28;20126;-67
2022/04/23 04:32:51;;;;;;;27.48;23.20;;;13.10;99.90;;;13.37;73.33;100360.50;5055501;28;20405;-68
2022/04/23 04:35:20;;;;;;;27.33;24.27;;;13.10;99.90;;;13.38;73.14;100343.63;5073163;28;20048;-67
2022/04/23 04:37:50;;;;;;;28.80;25.45;;;13.10;99.90;;;13.16;73.74;100342.38;5055433;28;20197;-68
2022/04/23 04:40:18;;;;;;;30.88;25.33;;;13.00;99.90;;;13.07;73.86;100324.00;5055379;28;20056;-67
2022/04/23 04:42:46;;;;;;;31.27;24.40;;;12.90;99.90;;;13.26;74.25;100351.88;5073024;28;20068;-68
2022/04/23 04:45:15;;;;;;;29.13;25.02;;;12.90;99.90;;;13.31;73.77;100352.66;5072972;28;20102;-67
2022/04/23 04:47:43;;;;;;;30.15;24.85;;;13.00;99.90;;;13.31;73.96;100349.13;5073101;28;20041;-67
2022/04/23 04:50:11;;;;;;;28.50;24.60;;;13.00;99.90;;;13.26;73.98;100345.69;5073209;28;20072;-68
2022/04/23 04:52:40;;;;;;;31.15;25.90;;;13.00;99.90;;;13.15;74.52;100353.03;5073474;28;20044;-67
2022/04/23 04:55:11;;;;;;;35.05;26.10;;;12.90;99.90;;;13.20;74.78;100354.66;5072929;28;20094;-67
2022/04/23 04:57:42;;;;;;;32.72;26.30;;;12.90;99.90;;;13.20;74.67;100352.03;5073248;28;20113;-69
2022/04/23 05:00:12;;;;;;;32.00;26.48;;;12.90;99.90;;;13.16;74.78;100352.16;5073084;28;20386;-67
2022/04/23 05:02:40;;;;;;;29.75;26.55;;;12.90;99.90;;;13.02;75.16;100323.22;5072688;28;20053;-67
2022/04/23 05:05:09;;;;;;;31.77;27.77;;;12.90;99.90;;;13.11;74.96;100344.28;5072809;28;20049;-67
2022/04/23 05:07:38;;;;;;;31.73;27.15;;;12.90;99.90;;;13.21;75.02;100359.09;5073067;28;20090;-67
2022/04/23 05:10:08;;;;;;;36.00;27.55;;;12.90;99.90;;;13.15;75.09;100353.03;5073307;28;20123;-67
2022/04/23 05:12:37;;;;;;;32.78;28.98;;;12.90;99.90;;;13.23;75.40;100365.25;5073018;28;20434;-67
2022/04/23 05:15:07;;;;;;;34.17;28.42;;;12.90;99.90;;;13.21;75.06;100356.44;5072951;28;20091;-67
2022/04/23 05:17:39;;;;;;;35.08;29.40;;;13.00;99.90;;;13.27;75.19;100369.56;5072635;28;20048;-68
2022/04/23 05:20:09;;;;;;;33.53;28.15;;;13.00;99.90;;;13.26;75.28;100358.97;5072695;28;20040;-67
2022/04/23 05:22:37;;;;;;;35.13;29.67;;;13.00;99.90;;;13.20;74.97;100337.88;5072957;28;20048;-67
2022/04/23 05:25:07;;;;;;;33.05;28.25;;;13.00;99.90;;;13.16;75.22;100346.84;5076862;28;20048;-68
2022/04/23 05:27:36;;;;;;;35.70;29.15;;;13.00;99.90;;;13.32;75.32;100365.00;5076559;28;20064;-68
2022/04/23 05:30:07;;;;;;;32.67;29.15;;;13.00;99.90;;;13.28;75.54;100370.44;5077102;28;20045;-68
2022/04/23 05:32:35;;;;;;;41.53;29.77;;;13.00;99.90;;;13.29;75.50;100356.25;5076987;28;20127;-68
2022/04/23 05:35:10;;;;;;;37.33;30.02;;;13.10;99.90;;;13.35;75.11;100357.00;5076696;28;20071;-67
2022/04/23 05:37:39;;;;;;;36.25;28.88;;;13.10;99.90;;;13.30;75.01;100365.94;5076628;28;20072;-68
2022/04/23 05:40:09;;;;;;;37.33;30.75;;;13.10;99.90;;;13.41;75.46;100369.25;5076247;28;20494;-68
2022/04/23 05:42:39;;;;;;;38.65;30.05;;;13.10;99.90;;;13.52;74.89;100365.44;5076249;28;20114;-67
2022/04/23 05:45:08;;;;;;;36.07;29.90;;;13.20;99.90;;;13.69;74.74;100374.75;5076652;28;20098;-68
2022/04/23 05:47:40;;;;;;;33.63;29.83;;;13.40;99.90;;;13.69;74.50;100375.63;5076349;28;20289;-68
2022/04/23 05:50:10;;;;;;;35.25;30.75;;;13.40;99.90;;;13.67;73.89;100364.16;5076476;28;20044;-68
2022/04/23 05:52:38;;;;;;;34.58;29.92;;;13.50;99.90;;;13.87;73.85;100390.25;5076026;28;20047;-67
2022/04/23 05:55:08;;;;;;;37.25;29.70;;;13.50;99.90;;;13.60;73.72;100333.34;5076042;28;20445;-67
2022/04/23 05:57:39;;;;;;;39.38;31.20;;;13.60;99.90;;;12.67;74.33;100233.81;5076265;28;20098;-66
2022/04/23 06:00:10;;;;;;;36.90;30.40;;;13.40;99.90;;;13.51;74.66;100386.72;5076041;28;20140;-67
2022/04/23 06:02:40;;;;;;;35.15;31.38;;;13.30;99.90;;;13.54;74.86;100360.06;5075877;28;20036;-67
2022/04/23 06:05:10;;;;;;;35.75;30.75;;;13.40;99.90;;;13.57;74.28;100366.16;5058120;28;20075;-67
2022/04/23 06:07:39;;;;;;;35.30;29.97;;;13.40;99.90;;;13.81;74.23;100396.59;5076364;28;20410;-67
2022/04/23 06:10:10;;;;;;;36.33;31.23;;;13.50;99.90;;;13.41;74.97;100378.06;5075603;28;20052;-68
2022/04/23 06:12:40;;;;;;;35.45;30.98;;;13.30;99.90;;;13.22;75.88;100374.09;5075928;28;20074;-67
2022/04/23 06:15:09;;;;;;;40.63;32.45;;;13.10;99.90;;;13.72;75.40;100382.66;5075606;28;20169;-67
2022/04/23 06:17:38;;;;;;;35.95;30.63;;;13.30;99.90;;;13.83;74.72;100372.63;5075555;28;20098;-67
2022/04/23 06:20:08;;;;;;;37.38;30.48;;;13.50;99.90;;;13.77;74.11;100381.63;5075592;28;20036;-67
2022/04/23 06:22:36;;;;;;;36.95;30.63;;;13.50;99.90;;;13.98;73.96;100366.91;5075568;28;20040;-67
2022/04/23 06:25:07;;;;;;;35.33;30.73;;;13.60;99.90;;;14.15;73.44;100375.31;5075440;28;20115;-67
2022/04/23 06:27:36;;;;;;;36.60;29.27;;;13.80;99.90;;;13.84;73.56;100366.41;5075743;28;20037;-69
2022/04/23 06:30:09;;;;;;;35.08;30.65;;;13.70;99.90;;;14.00;73.51;100370.38;5075732;28;20401;-70
2022/04/23 06:32:38;;;;;;;37.30;31.20;;;13.70;99.90;;;13.87;73.61;100348.59;5075337;28;20131;-68
2022/04/23 06:35:08;;;;;;;34.85;29.88;;;13.70;99.90;;;13.99;73.30;100320.78;5074256;28;20054;-68
2022/04/23 06:37:41;;;;;;;36.97;30.42;;;13.90;99.90;;;14.16;72.67;100346.03;5075203;28;20448;-68
2022/04/23 06:40:13;;;;;;;35.00;30.58;;;14.00;99.90;;;14.20;72.76;100354.78;5057765;28;20071;-68
2022/04/23 06:42:42;;;;;;;37.38;31.58;;;14.10;99.90;;;14.38;72.54;100371.13;5075467;28;20538;-67
2022/04/23 06:45:13;;;;;;;34.15;30.45;;;14.20;99.90;;;14.46;71.67;100329.22;5057375;28;20055;-68
2022/04/23 06:47:42;;;;;;;36.13;31.15;;;14.30;99.90;;;14.75;71.16;100351.47;5075117;28;20041;-67
2022/04/23 06:50:11;;;;;;;33.10;29.55;;;14.50;99.90;;;14.59;70.99;100353.69;5075098;28;20048;-68
2022/04/23 06:52:40;;;;;;;36.08;29.50;;;14.50;99.90;;;14.59;70.89;100342.19;5057513;28;20044;-68
2022/04/23 06:55:09;;;;;;;34.80;30.55;;;14.40;99.90;;;14.69;70.92;100364.94;5073793;28;20049;-68
2022/04/23 06:57:44;;;;;;;35.80;30.38;;;14.40;99.90;;;14.50;71.28;100340.63;5075062;28;20494;-67
2022/04/23 07:00:15;;;;;;;35.60;31.75;;;14.40;99.90;;;14.42;71.18;100332.00;5074986;28;20132;-66
2022/04/23 07:02:44;;;;;;;33.25;28.70;;;14.40;99.90;;;14.81;70.56;100361.91;5074681;28;20198;-65
2022/04/23 07:05:13;;;;;;;34.50;30.90;;;14.50;99.90;;;14.95;70.59;100359.72;5074708;28;20090;-76
2022/04/23 07:07:42;;;;;;;33.60;29.00;;;14.60;99.90;;;14.73;69.71;100306.22;5074444;28;20044;-66
2022/04/23 07:10:10;;;;;;;34.13;29.10;;;14.70;99.90;;;15.02;69.51;100356.81;5075068;28;20488;-65
2022/04/23 07:12:39;;;;;;;34.85;29.92;;;14.70;99.90;;;13.33;69.43;100124.19;5056686;28;20466;-64
2022/04/23 07:15:09;;;;;;;33.03;29.25;;;14.70;99.90;;;14.62;70.04;100345.63;5074328;28;20045;-64
2022/04/23 07:17:38;;;;;;;36.10;29.75;;;14.50;99.90;;;14.79;70.48;100374.41;5074469;28;20048;-64
2022/04/23 07:20:08;;;;;;;37.03;30.85;;;14.50;99.90;;;14.07;71.81;100367.53;5074368;28;20045;-66
2022/04/23 07:22:37;;;;;;;36.17;30.80;;;14.10;99.90;;;14.09;73.27;100359.53;5074107;28;20087;-66
2022/04/23 07:25:07;;;;;;;35.50;30.63;;;13.90;99.90;;;14.37;72.24;100357.88;5073981;28;20079;-67
2022/04/23 07:27:36;;;;;;;34.22;29.73;;;14.10;99.90;;;14.51;71.32;100345.06;5074361;28;20048;-64
2022/04/23 07:30:06;;;;;;;34.47;29.80;;;14.20;99.90;;;14.21;72.34;100346.75;5074319;28;20114;-67
2022/04/23 07:32:35;;;;;;;34.90;29.83;;;14.00;99.90;;;14.60;71.19;100342.13;5074316;28;20044;-65
2022/04/23 07:37:52;;;;;;;35.35;29.40;;;14.40;99.90;;;14.28;71.86;100345.72;5073851;28;20071;-70
2022/04/23 07:40:21;;;;;;;32.90;28.85;;;14.10;99.90;;;14.48;71.18;100347.78;5073965;28;20060;-66
2022/04/23 07:42:49;;;;;;;34.05;28.77;;;14.20;99.90;;;14.34;71.10;100262.19;5073942;28;20052;-68
2022/04/23 07:45:18;;;;;;;34.00;28.92;;;14.50;99.90;;;15.24;70.23;100341.91;5073362;28;20045;-72
2022/04/23 07:47:46;;;;;;;33.33;29.38;;;14.80;99.90;;;15.07;69.70;100343.34;5073710;28;20051;-69
2022/04/23 07:50:16;;;;;;;32.88;27.40;;;14.80;99.90;;;15.05;69.55;100323.88;5073549;28;20044;-69
2022/04/23 07:52:45;;;;;;;32.55;27.42;;;14.90;99.90;;;15.65;68.52;100342.38;5073764;28;20457;-67
2022/04/23 07:55:13;;;;;;;33.47;26.75;;;15.30;99.90;;;15.70;67.00;100330.63;5073533;28;20040;-69
2022/04/23 07:57:41;;;;;;;30.30;27.00;;;15.50;99.90;;;15.86;66.35;100315.84;5073598;28;20044;-69
2022/04/23 08:00:11;;;;;;;29.88;26.27;;;15.50;99.90;;;15.66;65.81;100318.31;5073997;28;20102;-69
2022/04/23 08:02:39;;;;;;;28.65;25.63;;;15.40;99.90;;;15.75;65.62;100320.69;5073436;28;20044;-69
2022/04/23 08:05:12;;;;;;;29.10;25.63;;;15.50;99.90;;;15.72;65.79;100311.91;5073439;28;20040;-68
2022/04/23 08:07:43;;;;;;;31.73;25.63;;;15.50;99.90;;;15.97;65.32;100331.47;5055704;28;20055;-68
2022/04/23 08:10:11;;;;;;;29.85;25.67;;;15.70;99.90;;;15.53;66.00;100329.44;5072514;28;20052;-68
2022/04/23 08:12:40;;;;;;;30.67;26.90;;;15.40;99.90;;;15.79;66.28;100333.00;5073226;28;20490;-69
2022/04/23 08:15:11;;;;;;;30.13;26.55;;;15.50;99.90;;;15.13;67.35;100343.16;5073379;28;20049;-68
2022/04/23 08:17:40;;;;;;;31.08;26.10;;;15.00;99.90;;;14.99;69.53;100311.63;5073113;28;20090;-68
2022/04/23 08:20:11;;;;;;;30.63;26.73;;;14.60;99.90;;;15.60;68.10;100307.88;5073096;28;20071;-69
2022/04/23 08:22:40;;;;;;;28.20;25.30;;;15.10;99.90;;;15.93;65.93;100311.19;5073897;28;20453;-69
2022/04/23 08:25:10;;;;;;;39.40;25.93;;;15.50;99.90;;;15.55;66.95;100299.16;5073306;28;20079;-69
2022/04/23 08:30:34;;;;;;;30.27;25.97;;;15.40;99.90;;;15.83;65.83;100309.75;5073206;28;20072;-68
2022/04/23 08:30:45;;;;;;;29.73;25.40;;;15.50;99.90;;;15.57;65.41;100286.66;5072900;28;20060;-68
2022/04/23 08:33:13;;;;;;;31.73;27.05;;;15.50;99.90;;;15.26;66.59;100320.53;5055079;28;20139;-68
2022/04/23 08:35:42;;;;;;;30.27;26.65;;;15.10;99.90;;;15.74;67.13;100304.72;5073157;28;20090;-69
2022/04/23 08:38:12;;;;;;;28.15;25.15;;;15.40;99.90;;;15.98;66.91;100320.78;5073159;28;20482;-71
2022/04/23 08:40:43;;;;;;;28.40;25.47;;;15.50;99.90;;;16.12;64.83;100314.94;5072932;28;20098;-70
2022/04/23 08:43:12;;;;;;;28.00;25.10;;;15.80;99.90;;;16.12;63.72;100286.44;5072787;28;20048;-69
2022/04/23 08:45:40;;;;;;;28.73;25.73;;;15.90;99.90;;;15.97;63.72;100302.13;5073029;28;20045;-71
2022/04/23 08:48:11;;;;;;;29.83;26.63;;;15.90;99.90;;;15.26;65.33;100292.09;5072853;28;20056;-70
2022/04/23 08:50:42;;;;;;;29.48;25.27;;;15.30;99.90;;;15.84;64.98;100304.38;5073241;28;20494;-70
2022/04/23 08:53:18;;;;;;;28.73;25.63;;;15.50;99.90;;;16.04;64.38;100277.00;5072760;28;20502;-70
2022/04/23 08:55:54;;;;;;;28.65;25.38;;;15.70;99.90;;;16.10;63.89;100285.63;5073232;28;20128;-70
2022/04/23 08:58:23;;;;;;;29.92;25.85;;;15.70;99.90;;;15.70;64.82;100306.63;5072189;28;20045;-70
2022/04/23 09:00:51;;;;;;;26.90;24.10;;;15.60;99.90;;;15.97;63.79;100303.00;5072750;28;20090;-70
2022/04/23 09:03:20;;;;;;;27.35;24.60;;;15.60;99.90;;;16.29;63.29;100304.53;5072827;28;20059;-70
2022/04/23 09:05:53;;;;;;;29.77;25.02;;;15.90;99.90;;;15.85;65.44;100302.59;5072985;28;20119;-72
2022/04/23 09:08:25;;;;;;;31.45;25.73;;;15.60;99.90;;;16.15;64.04;100289.03;5072768;28;20048;-71
2022/04/23 09:10:54;;;;;;;29.90;26.65;;;15.80;99.90;;;15.97;64.75;100310.13;5072701;28;20553;-69
2022/04/23 09:13:27;;;;;;;29.63;25.70;;;15.70;99.90;;;15.88;64.37;100275.78;5072657;28;20048;-69
2022/04/23 09:24:46;;;;;;;28.33;25.42;;;15.20;99.90;;;16.07;65.20;100299.09;5072601;28;20044;-68
2022/04/23 09:27:15;;;;;;;30.77;25.40;;;15.70;99.90;;;15.95;63.87;100301.34;5072758;28;20102;-68
2022/04/23 09:29:59;;;;;;;29.98;24.92;;;15.60;99.90;;;15.99;63.87;100305.63;5072462;28;20119;-68
2022/04/23 09:32:28;;;;;;;30.60;24.58;;;15.70;99.90;;;15.68;63.65;100308.47;5072817;28;20048;-70
2022/04/23 09:35:09;;;;;;;31.52;25.38;;;15.50;99.90;;;15.75;63.04;100296.69;5072287;28;20106;-68
2022/04/23 09:40:27;;;;;;;28.00;24.63;;;15.50;99.90;;;16.08;63.03;100286.63;5072386;28;20049;-69
2022/04/23 09:43:01;;;;;;;26.70;23.65;;;15.70;99.90;;;16.42;61.50;100289.78;5054704;28;20147;-70
2022/04/23 09:45:31;;;;;;;30.73;24.98;;;16.10;99.90;;;15.93;62.37;100306.72;5072527;28;20044;-69
2022/04/23 09:48:18;;;;;;;27.90;24.63;;;15.70;99.90;;;16.22;62.19;100277.19;5072305;28;20485;-69
2022/04/23 09:50:49;;;;;;;27.90;24.90;;;16.00;99.90;;;16.52;62.67;100301.91;5072318;28;20121;-70
2022/04/23 09:53:19;;;;;;;32.88;26.25;;;16.20;99.90;;;16.62;60.59;100278.41;5054543;28;20126;-69
2022/04/23 09:55:50;;;;;;;26.08;23.00;;;16.40;99.90;;;16.82;60.22;100322.09;5072317;28;20041;-69
2022/04/23 09:58:18;;;;;;;27.10;24.25;;;16.50;99.90;;;16.18;62.27;100322.75;5072185;28;20043;-71
2022/04/23 10:00:50;;;;;;;27.50;24.48;;;16.10;99.90;;;16.20;61.88;100304.88;5054327;28;20406;-67
2022/04/23 10:03:19;;;;;;;32.47;23.85;;;16.00;99.90;;;14.08;61.94;99934.94;5072083;28;20102;-68
2022/04/23 10:05:49;;;;;;;29.15;24.70;;;15.90;99.90;;;15.96;62.64;100255.94;5072038;28;20083;-68
2022/04/23 10:08:25;;;;;;;27.60;24.75;;;15.90;99.90;;;16.53;61.06;100306.31;5072467;28;20409;-69
2022/04/23 10:11:00;;;;;;;29.00;25.40;;;16.10;99.90;;;16.68;60.98;100303.06;5074458;28;20127;-68
2022/04/23 10:13:30;;;;;;;27.92;24.98;;;16.30;99.90;;;16.56;62.17;100287.50;5075581;28;20048;-68
2022/04/23 10:15:59;;;;;;;;;;;16.20;99.90;;;16.24;62.30;100303.81;5076281;28;20048;-69
2022/04/23 10:18:28;;;;;;;28.17;25.25;;;16.00;99.90;;;16.63;61.02;100309.50;5075592;28;20381;-68
2022/04/23 10:21:01;;;;;;;31.48;25.13;;;16.30;99.90;;;16.01;62.17;100330.44;5075545;28;20049;-70
2022/04/23 10:23:51;;;;;;;30.60;24.48;;;15.90;99.90;;;15.64;64.62;100236.69;5075479;28;20040;-69
2022/04/23 10:26:42;;;;;;;28.17;25.20;;;15.70;99.90;;;16.44;62.04;100295.06;5075771;28;20099;-67
2022/04/23 10:29:14;;;;;;;28.00;25.17;;;16.10;99.90;;;16.95;60.87;100301.13;5076064;28;20442;-69